sensor_id;sensor_type;location;lat;lon;timestamp;P1;durP1;ratioP1;P2;durP2;ratioP2
31210;SDS011;17836;50.948;3.946;2024-03-17T00:01:11;6.57;;;4.57;;
31210;SDS011;17836;50.948;3.946;2024-03-17T00:03:37;9.25;;;5.70;;
31210;SDS011;17836;50.948;3.946;2024-03-17T00:06:02;7.80;;;5.47;;
31210;SDS011;17836;50.948;3.946;2024-03-17T00:08:30;7.50;;;4.95;;
31210;SDS011;17836;50.948;3.946;2024-03-17T00:10:55;7.22;;;5.35;;
31210;SDS011;17836;50.948;3.946;2024-03-17T00:13:21;6.20;;;4.70;;
31210;SDS011;17836;50.948;3.946;2024-03-17T00:15:49;8.20;;;5.40;;
31210;SDS011;17836;50.948;3.946;2024-03-17T00:18:15;5.70;;;4.93;;
31210;SDS011;17836;50.948;3.946;2024-03-17T00:20:40;7.00;;;5.13;;
31210;SDS011;17836;50.948;3.946;2024-03-17T00:23:06;6.07;;;4.43;;
31210;SDS011;17836;50.948;3.946;2024-03-17T00:25:36;7.43;;;5.20;;
31210;SDS011;17836;50.948;3.946;2024-03-17T00:28:02;5.00;;;4.53;;
31210;SDS011;17836;50.948;3.946;2024-03-17T00:30:27;6.35;;;5.10;;
31210;SDS011;17836;50.948;3.946;2024-03-17T00:32:53;9.50;;;4.97;;
31210;SDS011;17836;50.948;3.946;2024-03-17T00:35:18;6.43;;;5.55;;
31210;SDS011;17836;50.948;3.946;2024-03-17T00:37:49;6.18;;;5.55;;
31210;SDS011;17836;50.948;3.946;2024-03-17T00:40:18;10.02;;;5.88;;
31210;SDS011;17836;50.948;3.946;2024-03-17T00:42:43;5.93;;;5.10;;
31210;SDS011;17836;50.948;3.946;2024-03-17T00:45:12;6.85;;;5.55;;
31210;SDS011;17836;50.948;3.946;2024-03-17T00:47:37;9.88;;;5.45;;
31210;SDS011;17836;50.948;3.946;2024-03-17T00:50:03;7.07;;;5.43;;
31210;SDS011;17836;50.948;3.946;2024-03-17T00:52:29;6.38;;;5.32;;
31210;SDS011;17836;50.948;3.946;2024-03-17T00:54:54;8.25;;;5.20;;
31210;SDS011;17836;50.948;3.946;2024-03-17T00:57:20;6.55;;;5.90;;
31210;SDS011;17836;50.948;3.946;2024-03-17T00:59:45;7.70;;;5.80;;
31210;SDS011;17836;50.948;3.946;2024-03-17T01:02:16;6.97;;;5.20;;
31210;SDS011;17836;50.948;3.946;2024-03-17T01:04:42;13.80;;;7.00;;
31210;SDS011;17836;50.948;3.946;2024-03-17T01:07:08;8.43;;;6.20;;
31210;SDS011;17836;50.948;3.946;2024-03-17T01:09:35;8.95;;;5.70;;
31210;SDS011;17836;50.948;3.946;2024-03-17T01:12:01;7.00;;;5.93;;
31210;SDS011;17836;50.948;3.946;2024-03-17T01:14:27;9.88;;;6.07;;
31210;SDS011;17836;50.948;3.946;2024-03-17T01:19:55;8.35;;;6.13;;
31210;SDS011;17836;50.948;3.946;2024-03-17T01:22:28;7.10;;;6.40;;
31210;SDS011;17836;50.948;3.946;2024-03-17T01:24:53;5.90;;;5.30;;
31210;SDS011;17836;50.948;3.946;2024-03-17T01:27:19;6.43;;;5.83;;
31210;SDS011;17836;50.948;3.946;2024-03-17T01:29:48;7.65;;;5.60;;
31210;SDS011;17836;50.948;3.946;2024-03-17T01:32:16;5.87;;;5.20;;
31210;SDS011;17836;50.948;3.946;2024-03-17T01:34:41;11.18;;;6.70;;
31210;SDS011;17836;50.948;3.946;2024-03-17T01:37:07;5.60;;;4.80;;
31210;SDS011;17836;50.948;3.946;2024-03-17T01:39:32;6.85;;;5.32;;
31210;SDS011;17836;50.948;3.946;2024-03-17T01:41:58;6.03;;;5.05;;
31210;SDS011;17836;50.948;3.946;2024-03-17T01:44:27;8.88;;;4.97;;
31210;SDS011;17836;50.948;3.946;2024-03-17T01:46:55;6.45;;;5.82;;
31210;SDS011;17836;50.948;3.946;2024-03-17T01:49:21;7.28;;;5.53;;
31210;SDS011;17836;50.948;3.946;2024-03-17T01:51:46;7.80;;;5.43;;
31210;SDS011;17836;50.948;3.946;2024-03-17T01:54:12;8.52;;;6.45;;
31210;SDS011;17836;50.948;3.946;2024-03-17T01:56:38;6.82;;;6.05;;
31210;SDS011;17836;50.948;3.946;2024-03-17T01:59:04;8.20;;;5.40;;
31210;SDS011;17836;50.948;3.946;2024-03-17T02:01:29;7.05;;;5.40;;
31210;SDS011;17836;50.948;3.946;2024-03-17T02:03:55;6.03;;;5.43;;
31210;SDS011;17836;50.948;3.946;2024-03-17T02:06:23;5.95;;;4.93;;
31210;SDS011;17836;50.948;3.946;2024-03-17T02:08:52;5.30;;;4.72;;
31210;SDS011;17836;50.948;3.946;2024-03-17T02:11:31;5.55;;;4.68;;
31210;SDS011;17836;50.948;3.946;2024-03-17T02:13:57;7.13;;;5.53;;
31210;SDS011;17836;50.948;3.946;2024-03-17T02:18:58;6.22;;;5.60;;
31210;SDS011;17836;50.948;3.946;2024-03-17T02:21:24;6.65;;;4.90;;
31210;SDS011;17836;50.948;3.946;2024-03-17T02:23:50;6.32;;;5.47;;
31210;SDS011;17836;50.948;3.946;2024-03-17T02:26:18;5.97;;;5.38;;
31210;SDS011;17836;50.948;3.946;2024-03-17T02:28:44;8.05;;;5.40;;
31210;SDS011;17836;50.948;3.946;2024-03-17T02:31:10;7.93;;;5.25;;
31210;SDS011;17836;50.948;3.946;2024-03-17T02:33:36;8.38;;;5.70;;
31210;SDS011;17836;50.948;3.946;2024-03-17T02:36:01;9.50;;;5.63;;
31210;SDS011;17836;50.948;3.946;2024-03-17T02:38:28;6.43;;;5.82;;
31210;SDS011;17836;50.948;3.946;2024-03-17T02:41:12;5.90;;;5.22;;
31210;SDS011;17836;50.948;3.946;2024-03-17T02:43:38;10.65;;;5.93;;
31210;SDS011;17836;50.948;3.946;2024-03-17T02:46:03;6.17;;;5.30;;
31210;SDS011;17836;50.948;3.946;2024-03-17T02:48:30;7.03;;;5.18;;
31210;SDS011;17836;50.948;3.946;2024-03-17T02:50:55;8.93;;;4.88;;
31210;SDS011;17836;50.948;3.946;2024-03-17T02:53:21;6.97;;;5.45;;
31210;SDS011;17836;50.948;3.946;2024-03-17T02:55:46;8.18;;;5.47;;
31210;SDS011;17836;50.948;3.946;2024-03-17T02:58:11;5.53;;;4.87;;
31210;SDS011;17836;50.948;3.946;2024-03-17T03:00:36;6.43;;;5.60;;
31210;SDS011;17836;50.948;3.946;2024-03-17T03:03:02;6.77;;;6.17;;
31210;SDS011;17836;50.948;3.946;2024-03-17T03:05:27;7.80;;;5.63;;
31210;SDS011;17836;50.948;3.946;2024-03-17T03:07:52;6.07;;;4.90;;
31210;SDS011;17836;50.948;3.946;2024-03-17T03:10:18;6.50;;;4.90;;
31210;SDS011;17836;50.948;3.946;2024-03-17T03:12:43;6.90;;;5.80;;
31210;SDS011;17836;50.948;3.946;2024-03-17T03:15:08;5.63;;;5.13;;
31210;SDS011;17836;50.948;3.946;2024-03-17T03:17:33;5.95;;;5.20;;
31210;SDS011;17836;50.948;3.946;2024-03-17T03:19:59;7.47;;;5.10;;
31210;SDS011;17836;50.948;3.946;2024-03-17T03:22:26;5.60;;;5.10;;
31210;SDS011;17836;50.948;3.946;2024-03-17T03:24:51;6.05;;;5.22;;
31210;SDS011;17836;50.948;3.946;2024-03-17T03:27:17;7.50;;;5.30;;
31210;SDS011;17836;50.948;3.946;2024-03-17T03:29:42;7.93;;;5.97;;
31210;SDS011;17836;50.948;3.946;2024-03-17T03:32:08;5.40;;;4.90;;
31210;SDS011;17836;50.948;3.946;2024-03-17T03:34:33;5.22;;;4.72;;
31210;SDS011;17836;50.948;3.946;2024-03-17T03:36:58;7.88;;;4.97;;
31210;SDS011;17836;50.948;3.946;2024-03-17T03:39:24;5.77;;;5.20;;
31210;SDS011;17836;50.948;3.946;2024-03-17T03:41:52;6.13;;;4.93;;
31210;SDS011;17836;50.948;3.946;2024-03-17T03:44:17;5.68;;;5.07;;
31210;SDS011;17836;50.948;3.946;2024-03-17T03:46:45;5.60;;;4.90;;
31210;SDS011;17836;50.948;3.946;2024-03-17T03:49:11;7.55;;;5.22;;
31210;SDS011;17836;50.948;3.946;2024-03-17T03:51:36;7.67;;;5.77;;
31210;SDS011;17836;50.948;3.946;2024-03-17T03:54:02;6.43;;;5.55;;
31210;SDS011;17836;50.948;3.946;2024-03-17T03:56:31;5.90;;;5.22;;
31210;SDS011;17836;50.948;3.946;2024-03-17T03:58:56;5.70;;;4.95;;
31210;SDS011;17836;50.948;3.946;2024-03-17T04:01:24;7.03;;;5.38;;
31210;SDS011;17836;50.948;3.946;2024-03-17T04:03:49;6.68;;;5.40;;
31210;SDS011;17836;50.948;3.946;2024-03-17T04:06:14;6.68;;;5.97;;
31210;SDS011;17836;50.948;3.946;2024-03-17T04:08:41;7.68;;;5.85;;
31210;SDS011;17836;50.948;3.946;2024-03-17T04:11:06;8.70;;;5.55;;
31210;SDS011;17836;50.948;3.946;2024-03-17T04:13:32;6.55;;;4.90;;
31210;SDS011;17836;50.948;3.946;2024-03-17T04:16:00;5.75;;;5.25;;
31210;SDS011;17836;50.948;3.946;2024-03-17T04:18:29;6.28;;;4.97;;
31210;SDS011;17836;50.948;3.946;2024-03-17T04:20:55;6.03;;;4.65;;
31210;SDS011;17836;50.948;3.946;2024-03-17T04:23:21;5.38;;;4.88;;
31210;SDS011;17836;50.948;3.946;2024-03-17T04:25:49;7.75;;;5.35;;
31210;SDS011;17836;50.948;3.946;2024-03-17T04:28:15;8.98;;;5.60;;
31210;SDS011;17836;50.948;3.946;2024-03-17T04:30:40;5.60;;;5.05;;
31210;SDS011;17836;50.948;3.946;2024-03-17T04:33:07;8.70;;;5.13;;
31210;SDS011;17836;50.948;3.946;2024-03-17T04:35:36;8.90;;;5.70;;
31210;SDS011;17836;50.948;3.946;2024-03-17T04:38:01;7.13;;;5.68;;
31210;SDS011;17836;50.948;3.946;2024-03-17T04:40:26;8.32;;;5.60;;
31210;SDS011;17836;50.948;3.946;2024-03-17T04:42:52;9.70;;;6.23;;
31210;SDS011;17836;50.948;3.946;2024-03-17T04:45:17;9.27;;;5.83;;
31210;SDS011;17836;50.948;3.946;2024-03-17T04:47:42;7.78;;;5.70;;
31210;SDS011;17836;50.948;3.946;2024-03-17T04:50:07;10.23;;;5.30;;
31210;SDS011;17836;50.948;3.946;2024-03-17T04:52:33;9.07;;;5.78;;
31210;SDS011;17836;50.948;3.946;2024-03-17T04:54:58;7.63;;;6.17;;
31210;SDS011;17836;50.948;3.946;2024-03-17T04:57:23;8.13;;;5.38;;
31210;SDS011;17836;50.948;3.946;2024-03-17T04:59:49;7.00;;;5.33;;
31210;SDS011;17836;50.948;3.946;2024-03-17T05:02:14;9.43;;;5.40;;
31210;SDS011;17836;50.948;3.946;2024-03-17T05:04:44;7.13;;;5.60;;
31210;SDS011;17836;50.948;3.946;2024-03-17T05:07:09;8.13;;;5.57;;
31210;SDS011;17836;50.948;3.946;2024-03-17T05:09:37;9.30;;;6.10;;
31210;SDS011;17836;50.948;3.946;2024-03-17T05:12:02;8.88;;;5.15;;
31210;SDS011;17836;50.948;3.946;2024-03-17T05:14:27;8.43;;;5.25;;
31210;SDS011;17836;50.948;3.946;2024-03-17T05:16:53;12.00;;;5.63;;
31210;SDS011;17836;50.948;3.946;2024-03-17T05:19:20;6.15;;;5.20;;
31210;SDS011;17836;50.948;3.946;2024-03-17T05:21:46;5.82;;;4.50;;
31210;SDS011;17836;50.948;3.946;2024-03-17T05:24:15;7.47;;;4.65;;
31210;SDS011;17836;50.948;3.946;2024-03-17T05:26:40;6.53;;;5.03;;
31210;SDS011;17836;50.948;3.946;2024-03-17T05:29:07;12.25;;;6.03;;
31210;SDS011;17836;50.948;3.946;2024-03-17T05:31:33;11.32;;;6.65;;
31210;SDS011;17836;50.948;3.946;2024-03-17T05:33:58;8.25;;;5.80;;
31210;SDS011;17836;50.948;3.946;2024-03-17T05:36:23;9.20;;;4.93;;
31210;SDS011;17836;50.948;3.946;2024-03-17T05:38:48;7.30;;;5.03;;
31210;SDS011;17836;50.948;3.946;2024-03-17T05:41:16;10.63;;;6.03;;
31210;SDS011;17836;50.948;3.946;2024-03-17T05:43:41;8.50;;;5.03;;
31210;SDS011;17836;50.948;3.946;2024-03-17T05:46:11;5.40;;;4.65;;
31210;SDS011;17836;50.948;3.946;2024-03-17T05:48:37;8.73;;;5.00;;
31210;SDS011;17836;50.948;3.946;2024-03-17T05:51:04;6.28;;;4.75;;
31210;SDS011;17836;50.948;3.946;2024-03-17T05:53:29;6.53;;;4.82;;
31210;SDS011;17836;50.948;3.946;2024-03-17T05:55:58;5.50;;;4.38;;
31210;SDS011;17836;50.948;3.946;2024-03-17T05:58:25;5.53;;;4.95;;
31210;SDS011;17836;50.948;3.946;2024-03-17T06:00:51;6.47;;;5.88;;
31210;SDS011;17836;50.948;3.946;2024-03-17T06:03:16;8.07;;;4.73;;
31210;SDS011;17836;50.948;3.946;2024-03-17T06:05:42;7.25;;;5.43;;
31210;SDS011;17836;50.948;3.946;2024-03-17T06:08:08;7.60;;;5.93;;
31210;SDS011;17836;50.948;3.946;2024-03-17T06:10:34;8.93;;;5.47;;
31210;SDS011;17836;50.948;3.946;2024-03-17T06:13:00;6.50;;;5.38;;
31210;SDS011;17836;50.948;3.946;2024-03-17T06:15:25;6.20;;;4.83;;
31210;SDS011;17836;50.948;3.946;2024-03-17T06:17:51;7.60;;;5.47;;
31210;SDS011;17836;50.948;3.946;2024-03-17T06:20:17;8.45;;;4.82;;
31210;SDS011;17836;50.948;3.946;2024-03-17T06:22:42;7.53;;;5.53;;
31210;SDS011;17836;50.948;3.946;2024-03-17T06:25:08;5.80;;;5.30;;
31210;SDS011;17836;50.948;3.946;2024-03-17T06:27:33;8.50;;;5.40;;
31210;SDS011;17836;50.948;3.946;2024-03-17T06:30:01;10.63;;;5.93;;
31210;SDS011;17836;50.948;3.946;2024-03-17T06:32:30;7.20;;;5.55;;
31210;SDS011;17836;50.948;3.946;2024-03-17T06:34:56;7.40;;;5.95;;
31210;SDS011;17836;50.948;3.946;2024-03-17T06:37:21;8.63;;;5.35;;
31210;SDS011;17836;50.948;3.946;2024-03-17T06:39:47;9.77;;;5.93;;
31210;SDS011;17836;50.948;3.946;2024-03-17T06:42:15;7.75;;;6.03;;
31210;SDS011;17836;50.948;3.946;2024-03-17T06:44:40;8.85;;;5.57;;
31210;SDS011;17836;50.948;3.946;2024-03-17T06:47:05;10.57;;;6.30;;
31210;SDS011;17836;50.948;3.946;2024-03-17T06:49:31;9.90;;;5.57;;
31210;SDS011;17836;50.948;3.946;2024-03-17T06:51:56;9.27;;;6.00;;
31210;SDS011;17836;50.948;3.946;2024-03-17T06:54:21;8.00;;;6.70;;
31210;SDS011;17836;50.948;3.946;2024-03-17T06:56:47;7.43;;;5.72;;
31210;SDS011;17836;50.948;3.946;2024-03-17T06:59:12;8.52;;;5.50;;
31210;SDS011;17836;50.948;3.946;2024-03-17T07:01:37;8.77;;;6.13;;
31210;SDS011;17836;50.948;3.946;2024-03-17T07:04:03;14.97;;;6.13;;
31210;SDS011;17836;50.948;3.946;2024-03-17T07:06:28;11.35;;;5.72;;
31210;SDS011;17836;50.948;3.946;2024-03-17T07:08:54;6.13;;;5.18;;
31210;SDS011;17836;50.948;3.946;2024-03-17T07:11:20;10.00;;;5.63;;
31210;SDS011;17836;50.948;3.946;2024-03-17T07:13:48;7.03;;;5.30;;
31210;SDS011;17836;50.948;3.946;2024-03-17T07:16:16;6.63;;;5.15;;
31210;SDS011;17836;50.948;3.946;2024-03-17T07:18:43;6.18;;;4.63;;
31210;SDS011;17836;50.948;3.946;2024-03-17T07:21:11;5.30;;;4.60;;
31210;SDS011;17836;50.948;3.946;2024-03-17T07:23:37;7.47;;;5.35;;
31210;SDS011;17836;50.948;3.946;2024-03-17T07:26:02;7.80;;;5.53;;
31210;SDS011;17836;50.948;3.946;2024-03-17T07:28:30;6.47;;;4.63;;
31210;SDS011;17836;50.948;3.946;2024-03-17T07:30:58;5.82;;;4.63;;
31210;SDS011;17836;50.948;3.946;2024-03-17T07:33:24;6.32;;;4.90;;
31210;SDS011;17836;50.948;3.946;2024-03-17T07:35:53;7.75;;;5.10;;
31210;SDS011;17836;50.948;3.946;2024-03-17T07:38:19;8.30;;;4.45;;
31210;SDS011;17836;50.948;3.946;2024-03-17T07:40:45;9.20;;;5.30;;
31210;SDS011;17836;50.948;3.946;2024-03-17T07:43:11;6.70;;;4.60;;
31210;SDS011;17836;50.948;3.946;2024-03-17T07:45:36;8.18;;;4.30;;
31210;SDS011;17836;50.948;3.946;2024-03-17T07:48:02;8.50;;;4.75;;
31210;SDS011;17836;50.948;3.946;2024-03-17T07:50:28;5.40;;;4.53;;
31210;SDS011;17836;50.948;3.946;2024-03-17T07:52:53;7.10;;;4.53;;
31210;SDS011;17836;50.948;3.946;2024-03-17T07:55:18;8.77;;;5.43;;
31210;SDS011;17836;50.948;3.946;2024-03-17T07:57:43;7.77;;;5.00;;
31210;SDS011;17836;50.948;3.946;2024-03-17T08:00:09;5.97;;;4.10;;
31210;SDS011;17836;50.948;3.946;2024-03-17T08:02:43;8.23;;;5.05;;
31210;SDS011;17836;50.948;3.946;2024-03-17T08:05:09;9.55;;;5.18;;
31210;SDS011;17836;50.948;3.946;2024-03-17T08:07:35;8.90;;;5.25;;
31210;SDS011;17836;50.948;3.946;2024-03-17T08:10:00;6.65;;;5.07;;
31210;SDS011;17836;50.948;3.946;2024-03-17T08:12:26;8.70;;;6.20;;
31210;SDS011;17836;50.948;3.946;2024-03-17T08:14:53;5.90;;;5.00;;
31210;SDS011;17836;50.948;3.946;2024-03-17T08:17:18;7.20;;;5.27;;
31210;SDS011;17836;50.948;3.946;2024-03-17T08:19:44;13.50;;;6.37;;
31210;SDS011;17836;50.948;3.946;2024-03-17T08:22:09;7.00;;;5.13;;
31210;SDS011;17836;50.948;3.946;2024-03-17T08:24:34;10.03;;;6.17;;
31210;SDS011;17836;50.948;3.946;2024-03-17T08:26:59;9.00;;;6.57;;
31210;SDS011;17836;50.948;3.946;2024-03-17T08:29:25;10.57;;;6.60;;
31210;SDS011;17836;50.948;3.946;2024-03-17T08:31:50;9.18;;;5.53;;
31210;SDS011;17836;50.948;3.946;2024-03-17T08:34:15;9.37;;;5.70;;
31210;SDS011;17836;50.948;3.946;2024-03-17T08:36:40;10.57;;;6.18;;
31210;SDS011;17836;50.948;3.946;2024-03-17T08:39:06;8.43;;;5.90;;
31210;SDS011;17836;50.948;3.946;2024-03-17T08:41:34;9.80;;;6.28;;
31210;SDS011;17836;50.948;3.946;2024-03-17T08:44:02;11.82;;;6.68;;
31210;SDS011;17836;50.948;3.946;2024-03-17T08:46:27;9.23;;;5.55;;
31210;SDS011;17836;50.948;3.946;2024-03-17T08:48:52;7.82;;;6.03;;
31210;SDS011;17836;50.948;3.946;2024-03-17T08:51:20;9.80;;;5.83;;
31210;SDS011;17836;50.948;3.946;2024-03-17T08:53:47;12.05;;;8.48;;
31210;SDS011;17836;50.948;3.946;2024-03-17T08:56:13;12.07;;;6.95;;
31210;SDS011;17836;50.948;3.946;2024-03-17T08:58:38;14.45;;;7.22;;
31210;SDS011;17836;50.948;3.946;2024-03-17T09:01:07;11.73;;;7.33;;
31210;SDS011;17836;50.948;3.946;2024-03-17T09:03:35;8.25;;;6.53;;
31210;SDS011;17836;50.948;3.946;2024-03-17T09:06:00;8.98;;;6.68;;
31210;SDS011;17836;50.948;3.946;2024-03-17T09:08:28;9.38;;;6.57;;
31210;SDS011;17836;50.948;3.946;2024-03-17T09:10:57;13.75;;;8.32;;
31210;SDS011;17836;50.948;3.946;2024-03-17T09:13:24;12.88;;;8.00;;
31210;SDS011;17836;50.948;3.946;2024-03-17T09:15:50;9.75;;;6.05;;
31210;SDS011;17836;50.948;3.946;2024-03-17T09:18:16;11.27;;;5.63;;
31210;SDS011;17836;50.948;3.946;2024-03-17T09:20:41;7.85;;;5.53;;
31210;SDS011;17836;50.948;3.946;2024-03-17T09:23:07;9.57;;;6.10;;
31210;SDS011;17836;50.948;3.946;2024-03-17T09:25:32;8.07;;;6.75;;
31210;SDS011;17836;50.948;3.946;2024-03-17T09:27:57;8.18;;;5.30;;
31210;SDS011;17836;50.948;3.946;2024-03-17T09:30:23;8.55;;;5.88;;
31210;SDS011;17836;50.948;3.946;2024-03-17T09:32:51;8.77;;;6.22;;
31210;SDS011;17836;50.948;3.946;2024-03-17T09:35:16;10.27;;;5.17;;
31210;SDS011;17836;50.948;3.946;2024-03-17T09:37:44;9.47;;;5.83;;
31210;SDS011;17836;50.948;3.946;2024-03-17T09:40:15;7.55;;;6.43;;
31210;SDS011;17836;50.948;3.946;2024-03-17T09:42:43;7.78;;;5.28;;
31210;SDS011;17836;50.948;3.946;2024-03-17T09:45:11;11.73;;;6.35;;
31210;SDS011;17836;50.948;3.946;2024-03-17T09:47:37;8.98;;;5.75;;
31210;SDS011;17836;50.948;3.946;2024-03-17T09:50:06;9.60;;;6.68;;
31210;SDS011;17836;50.948;3.946;2024-03-17T09:52:37;11.60;;;6.25;;
31210;SDS011;17836;50.948;3.946;2024-03-17T09:55:13;9.55;;;6.13;;
31210;SDS011;17836;50.948;3.946;2024-03-17T09:57:40;6.53;;;5.90;;
31210;SDS011;17836;50.948;3.946;2024-03-17T10:00:14;9.90;;;7.07;;
31210;SDS011;17836;50.948;3.946;2024-03-17T10:02:43;8.80;;;6.13;;
31210;SDS011;17836;50.948;3.946;2024-03-17T10:07:44;10.77;;;7.18;;
31210;SDS011;17836;50.948;3.946;2024-03-17T10:10:10;9.73;;;7.60;;
31210;SDS011;17836;50.948;3.946;2024-03-17T10:12:37;19.23;;;14.02;;
31210;SDS011;17836;50.948;3.946;2024-03-17T10:15:04;9.70;;;7.87;;
31210;SDS011;17836;50.948;3.946;2024-03-17T10:17:32;8.73;;;7.07;;
31210;SDS011;17836;50.948;3.946;2024-03-17T10:20:11;12.77;;;7.55;;
31210;SDS011;17836;50.948;3.946;2024-03-17T10:22:36;19.85;;;11.25;;
31210;SDS011;17836;50.948;3.946;2024-03-17T10:25:01;13.17;;;8.00;;
31210;SDS011;17836;50.948;3.946;2024-03-17T10:27:26;11.10;;;7.47;;
31210;SDS011;17836;50.948;3.946;2024-03-17T10:29:54;10.23;;;7.35;;
31210;SDS011;17836;50.948;3.946;2024-03-17T10:32:20;8.85;;;6.75;;
31210;SDS011;17836;50.948;3.946;2024-03-17T10:34:49;9.60;;;6.65;;
31210;SDS011;17836;50.948;3.946;2024-03-17T10:39:40;9.43;;;6.57;;
31210;SDS011;17836;50.948;3.946;2024-03-17T10:42:06;7.03;;;6.05;;
31210;SDS011;17836;50.948;3.946;2024-03-17T10:44:32;7.03;;;5.72;;
31210;SDS011;17836;50.948;3.946;2024-03-17T10:46:59;9.95;;;5.82;;
31210;SDS011;17836;50.948;3.946;2024-03-17T10:49:33;7.63;;;5.78;;
31210;SDS011;17836;50.948;3.946;2024-03-17T10:52:02;13.15;;;5.20;;
31210;SDS011;17836;50.948;3.946;2024-03-17T10:54:29;7.35;;;4.88;;
31210;SDS011;17836;50.948;3.946;2024-03-17T10:56:58;12.73;;;5.75;;
31210;SDS011;17836;50.948;3.946;2024-03-17T10:59:39;9.27;;;5.00;;
31210;SDS011;17836;50.948;3.946;2024-03-17T11:07:03;7.72;;;4.80;;
31210;SDS011;17836;50.948;3.946;2024-03-17T11:09:29;10.05;;;5.93;;
31210;SDS011;17836;50.948;3.946;2024-03-17T11:11:54;6.57;;;4.68;;
31210;SDS011;17836;50.948;3.946;2024-03-17T11:14:20;7.20;;;4.20;;
31210;SDS011;17836;50.948;3.946;2024-03-17T11:16:48;7.00;;;3.72;;
31210;SDS011;17836;50.948;3.946;2024-03-17T11:19:16;5.43;;;3.53;;
31210;SDS011;17836;50.948;3.946;2024-03-17T11:21:42;6.22;;;3.88;;
31210;SDS011;17836;50.948;3.946;2024-03-17T11:24:17;9.70;;;3.90;;
31210;SDS011;17836;50.948;3.946;2024-03-17T11:26:43;8.18;;;3.83;;
31210;SDS011;17836;50.948;3.946;2024-03-17T11:29:23;8.57;;;3.67;;
31210;SDS011;17836;50.948;3.946;2024-03-17T11:31:53;6.97;;;2.90;;
31210;SDS011;17836;50.948;3.946;2024-03-17T11:36:51;5.28;;;2.03;;
31210;SDS011;17836;50.948;3.946;2024-03-17T11:39:18;5.93;;;2.90;;
31210;SDS011;17836;50.948;3.946;2024-03-17T11:41:49;5.28;;;2.70;;
31210;SDS011;17836;50.948;3.946;2024-03-17T11:51:52;6.20;;;2.15;;
31210;SDS011;17836;50.948;3.946;2024-03-17T11:54:19;3.88;;;1.92;;
31210;SDS011;17836;50.948;3.946;2024-03-17T11:56:46;5.47;;;2.40;;
31210;SDS011;17836;50.948;3.946;2024-03-17T11:59:11;5.25;;;2.80;;
31210;SDS011;17836;50.948;3.946;2024-03-17T12:01:37;3.20;;;2.00;;
31210;SDS011;17836;50.948;3.946;2024-03-17T12:04:05;3.67;;;1.63;;
31210;SDS011;17836;50.948;3.946;2024-03-17T12:06:33;2.45;;;1.38;;
31210;SDS011;17836;50.948;3.946;2024-03-17T12:11:36;4.18;;;2.45;;
31210;SDS011;17836;50.948;3.946;2024-03-17T12:14:18;3.47;;;2.25;;
31210;SDS011;17836;50.948;3.946;2024-03-17T12:16:50;4.35;;;2.15;;
31210;SDS011;17836;50.948;3.946;2024-03-17T12:21:43;6.17;;;2.00;;
31210;SDS011;17836;50.948;3.946;2024-03-17T12:24:13;7.35;;;2.65;;
31210;SDS011;17836;50.948;3.946;2024-03-17T12:26:41;5.97;;;1.85;;
31210;SDS011;17836;50.948;3.946;2024-03-17T12:31:48;4.03;;;1.73;;
31210;SDS011;17836;50.948;3.946;2024-03-17T12:34:13;4.22;;;2.10;;
31210;SDS011;17836;50.948;3.946;2024-03-17T12:36:41;1.75;;;1.45;;
31210;SDS011;17836;50.948;3.946;2024-03-17T12:39:10;3.70;;;1.42;;
31210;SDS011;17836;50.948;3.946;2024-03-17T12:41:36;6.32;;;2.05;;
31210;SDS011;17836;50.948;3.946;2024-03-17T12:44:01;5.00;;;1.90;;
31210;SDS011;17836;50.948;3.946;2024-03-17T12:46:27;4.18;;;1.73;;
31210;SDS011;17836;50.948;3.946;2024-03-17T12:48:58;4.97;;;2.07;;
31210;SDS011;17836;50.948;3.946;2024-03-17T12:51:23;5.55;;;1.73;;
31210;SDS011;17836;50.948;3.946;2024-03-17T12:53:48;6.03;;;1.90;;
31210;SDS011;17836;50.948;3.946;2024-03-17T12:56:22;5.55;;;2.17;;
31210;SDS011;17836;50.948;3.946;2024-03-17T12:59:07;5.43;;;2.30;;
31210;SDS011;17836;50.948;3.946;2024-03-17T13:01:53;5.80;;;1.85;;
31210;SDS011;17836;50.948;3.946;2024-03-17T13:04:25;7.63;;;2.17;;
31210;SDS011;17836;50.948;3.946;2024-03-17T13:06:51;2.33;;;1.57;;
31210;SDS011;17836;50.948;3.946;2024-03-17T13:09:16;4.55;;;1.88;;
31210;SDS011;17836;50.948;3.946;2024-03-17T13:11:41;3.42;;;1.75;;
31210;SDS011;17836;50.948;3.946;2024-03-17T13:14:06;4.17;;;1.80;;
31210;SDS011;17836;50.948;3.946;2024-03-17T13:16:32;3.85;;;1.52;;
31210;SDS011;17836;50.948;3.946;2024-03-17T13:18:57;4.40;;;1.50;;
31210;SDS011;17836;50.948;3.946;2024-03-17T13:21:22;6.32;;;1.60;;
31210;SDS011;17836;50.948;3.946;2024-03-17T13:23:48;6.00;;;2.20;;
31210;SDS011;17836;50.948;3.946;2024-03-17T13:26:13;3.70;;;1.50;;
31210;SDS011;17836;50.948;3.946;2024-03-17T13:28:38;3.70;;;1.80;;
31210;SDS011;17836;50.948;3.946;2024-03-17T13:31:03;3.73;;;1.20;;
31210;SDS011;17836;50.948;3.946;2024-03-17T13:33:30;4.32;;;1.77;;
31210;SDS011;17836;50.948;3.946;2024-03-17T13:35:56;2.20;;;1.17;;
31210;SDS011;17836;50.948;3.946;2024-03-17T13:38:21;2.07;;;1.20;;
31210;SDS011;17836;50.948;3.946;2024-03-17T13:40:46;4.30;;;1.57;;
31210;SDS011;17836;50.948;3.946;2024-03-17T13:43:12;5.47;;;1.92;;
31210;SDS011;17836;50.948;3.946;2024-03-17T13:45:40;5.72;;;2.13;;
31210;SDS011;17836;50.948;3.946;2024-03-17T13:48:06;6.32;;;1.80;;
31210;SDS011;17836;50.948;3.946;2024-03-17T13:50:35;3.72;;;1.83;;
31210;SDS011;17836;50.948;3.946;2024-03-17T13:53:03;3.92;;;1.77;;
31210;SDS011;17836;50.948;3.946;2024-03-17T13:55:29;3.05;;;1.50;;
31210;SDS011;17836;50.948;3.946;2024-03-17T13:57:55;4.80;;;1.90;;
31210;SDS011;17836;50.948;3.946;2024-03-17T14:00:21;5.07;;;2.05;;
31210;SDS011;17836;50.948;3.946;2024-03-17T14:02:47;3.95;;;2.35;;
31210;SDS011;17836;50.948;3.946;2024-03-17T14:05:13;3.50;;;1.58;;
31210;SDS011;17836;50.948;3.946;2024-03-17T14:07:40;6.72;;;2.47;;
31210;SDS011;17836;50.948;3.946;2024-03-17T14:10:05;7.30;;;2.60;;
31210;SDS011;17836;50.948;3.946;2024-03-17T14:12:33;5.45;;;2.75;;
31210;SDS011;17836;50.948;3.946;2024-03-17T14:14:58;3.77;;;2.10;;
31210;SDS011;17836;50.948;3.946;2024-03-17T14:17:24;3.00;;;1.67;;
31210;SDS011;17836;50.948;3.946;2024-03-17T14:19:49;4.07;;;2.20;;
31210;SDS011;17836;50.948;3.946;2024-03-17T14:22:17;2.93;;;1.73;;
31210;SDS011;17836;50.948;3.946;2024-03-17T14:24:42;5.60;;;1.58;;
31210;SDS011;17836;50.948;3.946;2024-03-17T14:27:08;4.23;;;1.80;;
31210;SDS011;17836;50.948;3.946;2024-03-17T14:29:37;4.13;;;1.73;;
31210;SDS011;17836;50.948;3.946;2024-03-17T14:32:02;6.05;;;2.78;;
31210;SDS011;17836;50.948;3.946;2024-03-17T14:34:28;6.90;;;1.92;;
31210;SDS011;17836;50.948;3.946;2024-03-17T14:36:59;4.93;;;1.92;;
31210;SDS011;17836;50.948;3.946;2024-03-17T14:39:24;3.87;;;1.90;;
31210;SDS011;17836;50.948;3.946;2024-03-17T14:41:53;5.95;;;2.03;;
31210;SDS011;17836;50.948;3.946;2024-03-17T14:44:19;5.57;;;2.00;;
31210;SDS011;17836;50.948;3.946;2024-03-17T14:46:44;5.18;;;2.15;;
31210;SDS011;17836;50.948;3.946;2024-03-17T14:49:09;6.93;;;1.85;;
31210;SDS011;17836;50.948;3.946;2024-03-17T14:51:35;5.80;;;1.87;;
31210;SDS011;17836;50.948;3.946;2024-03-17T14:54:00;6.35;;;1.58;;
31210;SDS011;17836;50.948;3.946;2024-03-17T14:56:25;3.58;;;2.05;;
31210;SDS011;17836;50.948;3.946;2024-03-17T14:58:51;4.50;;;1.70;;
31210;SDS011;17836;50.948;3.946;2024-03-17T15:01:16;4.63;;;2.30;;
31210;SDS011;17836;50.948;3.946;2024-03-17T15:03:41;5.87;;;1.97;;
31210;SDS011;17836;50.948;3.946;2024-03-17T15:06:17;3.28;;;1.88;;
31210;SDS011;17836;50.948;3.946;2024-03-17T15:08:43;5.45;;;2.20;;
31210;SDS011;17836;50.948;3.946;2024-03-17T15:11:10;5.63;;;2.20;;
31210;SDS011;17836;50.948;3.946;2024-03-17T15:13:38;3.90;;;1.50;;
31210;SDS011;17836;50.948;3.946;2024-03-17T15:16:05;5.82;;;1.98;;